Time;durP1;ratioP1;P1;durP2;ratioP2;P2;SDS_P1;SDS_P2;PMS_P1;PMS_P2;Temp;Humidity;BMP_temperature;BMP_pressure;BME280_temperature;BME280_humidity;BME280_pressure;Samples;Min_cycle;Max_cycle;Signal;HPM_P1;HPM_P2
2024/01/03 00:00:00;;;;;;;15.82;2.75;;;9.40;99.90;;;;;;5030127;28;20037;-61
2024/01/03 00:02:26;;;;;;;17.52;3.22;;;9.40;99.90;;;;;;5047626;28;20084;-62
2024/01/03 00:04:51;;;;;;;15.35;4.57;;;9.30;99.90;;;;;;5045020;28;20076;-62
2024/01/03 00:07:17;;;;;;;17.42;3.22;;;9.30;99.90;;;;;;5016855;28;20083;-61
2024/01/03 00:09:43;;;;;;;17.92;3.72;;;9.30;99.90;;;;;;5059618;28;20045;-62
2024/01/03 00:12:17;;;;;;;19.92;3.63;;;9.30;99.90;;;;;;5031110;28;20045;-62
2024/01/03 00:14:42;;;;;;;16.90;3.17;;;9.30;99.90;;;;;;5047499;28;20045;-61
2024/01/03 00:17:10;;;;;;;20.17;3.42;;;9.30;99.90;;;;;;5043873;28;20045;-62
2024/01/03 00:19:37;;;;;;;21.42;4.00;;;9.20;99.90;;;;;;5030091;28;20029;-61
2024/01/03 00:22:04;;;;;;;17.92;3.13;;;9.20;99.90;;;;;;5045172;28;20044;-62
2024/01/03 00:24:37;;;;;;;19.63;3.90;;;9.20;99.90;;;;;;5044514;28;20037;-62
2024/01/03 00:27:03;;;;;;;21.35;3.47;;;9.20;99.90;;;;;;5051119;28;20057;-62
2024/01/03 00:29:29;;;;;;;17.13;3.15;;;9.20;99.90;;;;;;5043919;28;20041;-61
2024/01/03 00:31:54;;;;;;;20.30;3.20;;;9.20;99.90;;;;;;5062658;28;20203;-61
2024/01/03 00:34:23;;;;;;;16.67;3.20;;;9.20;99.90;;;;;;5044434;28;20044;-61
2024/01/03 00:36:55;;;;;;;23.30;3.63;;;9.20;99.90;;;;;;5044452;28;20056;-62
2024/01/03 00:39:33;;;;;;;14.95;3.63;;;9.20;99.90;;;;;;5047154;28;20041;-62
2024/01/03 00:41:59;;;;;;;25.98;4.20;;;9.20;99.90;;;;;;5031937;28;20071;-62
2024/01/03 00:44:25;;;;;;;18.77;3.53;;;9.30;99.90;;;;;;5049117;28;20127;-62
2024/01/03 00:46:53;;;;;;;21.83;3.00;;;9.30;99.90;;;;;;5048112;28;20533;-62
2024/01/03 00:49:20;;;;;;;18.85;4.03;;;9.30;99.90;;;;;;5045565;28;20132;-62
2024/01/03 00:51:48;;;;;;;19.58;3.33;;;9.30;99.90;;;;;;5053006;28;20052;-62
2024/01/03 00:54:16;;;;;;;29.85;4.53;;;9.30;99.90;;;;;;5060538;28;20053;-62
2024/01/03 00:56:43;;;;;;;20.35;3.88;;;9.30;99.90;;;;;;5040998;28;20124;-62
2024/01/03 00:59:09;;;;;;;19.02;3.75;;;9.30;99.90;;;;;;5024588;28;20050;-62
2024/01/03 01:01:35;;;;;;;26.52;3.67;;;9.30;99.90;;;;;;5039789;28;20037;-62
2024/01/03 01:04:01;;;;;;;21.10;4.05;;;9.30;99.90;;;;;;5046928;28;20052;-62
2024/01/03 01:06:26;;;;;;;18.63;3.55;;;9.30;99.90;;;;;;5048279;28;20132;-62
2024/01/03 01:08:52;;;;;;;22.20;4.10;;;9.30;99.90;;;;;;5057738;28;20339;-62
2024/01/03 01:11:18;;;;;;;24.05;4.28;;;9.30;99.90;;;;;;5063769;28;20048;-62
2024/01/03 01:13:44;;;;;;;16.13;3.50;;;9.30;99.90;;;;;;5043153;28;20349;-62
2024/01/03 01:16:09;;;;;;;19.33;3.97;;;9.30;99.90;;;;;;5060164;28;20045;-62
2024/01/03 01:18:38;;;;;;;23.27;4.70;;;9.30;99.90;;;;;;5027140;28;20033;-62
2024/01/03 01:21:04;;;;;;;25.05;4.40;;;9.30;99.90;;;;;;5062844;28;20438;-62
2024/01/03 01:23:30;;;;;;;29.80;4.72;;;9.30;99.90;;;;;;5046140;28;20182;-62
2024/01/03 01:25:55;;;;;;;21.63;3.67;;;9.30;99.90;;;;;;5028944;28;20102;-62
2024/01/03 01:28:21;;;;;;;27.73;5.10;;;9.30;99.90;;;;;;5046478;28;20041;-62
2024/01/03 01:30:47;;;;;;;21.45;4.47;;;9.30;99.90;;;;;;5044154;28;20048;-62
2024/01/03 01:33:12;;;;;;;16.33;4.13;;;9.30;99.90;;;;;;5045033;28;20047;-62
2024/01/03 01:35:38;;;;;;;25.83;4.32;;;9.30;99.90;;;;;;5059227;28;20091;-62
2024/01/03 01:38:06;;;;;;;23.50;4.57;;;9.30;99.90;;;;;;5043466;28;20040;-62
2024/01/03 01:40:32;;;;;;;20.58;3.80;;;9.30;99.90;;;;;;5029279;28;20071;-62
2024/01/03 01:42:58;;;;;;;24.88;3.95;;;9.40;99.90;;;;;;5044139;28;20241;-62
2024/01/03 01:45:23;;;;;;;20.10;3.72;;;9.40;99.90;;;;;;5043028;28;20183;-61
2024/01/03 01:47:50;;;;;;;18.05;3.97;;;9.40;99.90;;;;;;5045422;28;20391;-62
2024/01/03 01:50:18;;;;;;;23.48;4.43;;;9.40;99.90;;;;;;5046876;28;20051;-62
2024/01/03 01:52:44;;;;;;;21.95;4.20;;;9.40;99.90;;;;;;5042298;28;20045;-62
2024/01/03 01:55:11;;;;;;;19.58;3.17;;;9.40;99.90;;;;;;5047929;28;20072;-62
2024/01/03 01:57:39;;;;;;;19.15;3.42;;;9.40;99.90;;;;;;5046127;28;20052;-62
2024/01/03 02:00:07;;;;;;;23.55;4.55;;;9.40;99.90;;;;;;5039217;28;20048;-62
2024/01/03 02:02:35;;;;;;;20.27;3.00;;;9.30;99.90;;;;;;5045474;28;20068;-61
2024/01/03 02:05:01;;;;;;;20.20;3.47;;;9.40;99.90;;;;;;5028282;28;20045;-62
2024/01/03 02:07:30;;;;;;;18.90;4.20;;;9.40;99.90;;;;;;5044017;28;20402;-62
2024/01/03 02:09:55;;;;;;;21.00;4.78;;;9.40;99.90;;;;;;5045166;28;20056;-62
2024/01/03 02:12:29;;;;;;;17.35;3.10;;;9.40;99.90;;;;;;5044723;28;20490;-62
2024/01/03 02:14:55;;;;;;;21.55;3.65;;;9.50;99.90;;;;;;5058633;28;20048;-62
2024/01/03 02:17:21;;;;;;;25.10;3.75;;;9.50;99.90;;;;;;5009663;28;20052;-62
2024/01/03 02:19:47;;;;;;;21.38;3.10;;;9.50;99.90;;;;;;5043302;28;21352;-62
2024/01/03 02:22:13;;;;;;;17.58;2.88;;;9.50;99.90;;;;;;5042174;28;20071;-61
2024/01/03 02:24:38;;;;;;;16.88;3.47;;;9.50;99.90;;;;;;5045617;28;20129;-62
2024/01/03 02:27:04;;;;;;;19.65;2.88;;;9.50;99.90;;;;;;5046211;28;20417;-62
2024/01/03 02:29:30;;;;;;;17.13;4.40;;;9.60;99.90;;;;;;5056708;28;20045;-61
2024/01/03 02:31:55;;;;;;;16.80;3.63;;;9.60;99.90;;;;;;5063015;28;20043;-62
2024/01/03 02:34:21;;;;;;;20.65;3.45;;;9.60;99.90;;;;;;5045547;28;20037;-62
2024/01/03 02:36:52;;;;;;;17.98;3.60;;;9.60;99.90;;;;;;5043227;28;21150;-62
2024/01/03 02:39:17;;;;;;;28.08;4.57;;;9.60;99.90;;;;;;5041984;28;20124;-62
2024/01/03 02:41:43;;;;;;;17.70;2.80;;;9.60;99.90;;;;;;5044019;28;20469;-62
2024/01/03 02:44:10;;;;;;;16.65;2.92;;;9.60;99.90;;;;;;5043267;28;20524;-62
2024/01/03 02:46:36;;;;;;;25.10;3.70;;;9.60;99.90;;;;;;5040374;28;20033;-62
2024/01/03 02:49:01;;;;;;;17.05;3.00;;;9.60;99.90;;;;;;5041524;28;20359;-62
2024/01/03 02:51:30;;;;;;;22.77;4.10;;;9.60;99.90;;;;;;5062327;28;20056;-62
2024/01/03 02:53:56;;;;;;;15.35;3.28;;;9.60;99.90;;;;;;5055682;28;20032;-62
2024/01/03 02:56:21;;;;;;;19.75;2.50;;;9.60;99.90;;;;;;5056476;28;20037;-62
2024/01/03 02:58:47;;;;;;;17.75;3.55;;;9.60;99.90;;;;;;5044233;28;20044;-62
2024/01/03 03:01:13;;;;;;;16.20;3.10;;;9.60;99.90;;;;;;5059343;28;20084;-62
2024/01/03 03:03:39;;;;;;;15.35;3.75;;;9.60;99.90;;;;;;5026905;28;20128;-62
2024/01/03 03:06:04;;;;;;;20.63;3.85;;;9.60;99.90;;;;;;5046842;28;20045;-62
2024/01/03 03:08:31;;;;;;;16.63;2.53;;;9.60;99.90;;;;;;5039960;28;20044;-62
2024/01/03 03:10:56;;;;;;;13.88;2.35;;;9.60;99.90;;;;;;5043328;28;20577;-62
2024/01/03 03:13:23;;;;;;;16.38;2.70;;;9.60;99.90;;;;;;5038342;28;20123;-62
2024/01/03 03:15:48;;;;;;;17.48;2.90;;;9.60;99.90;;;;;;5060824;28;20502;-62
2024/01/03 03:18:14;;;;;;;21.23;4.68;;;9.60;99.90;;;;;;5028436;28;20056;-62
2024/01/03 03:20:40;;;;;;;15.00;2.30;;;9.60;99.90;;;;;;5040683;28;20453;-62
2024/01/03 03:23:06;;;;;;;16.67;2.90;;;9.60;99.90;;;;;;5044737;28;20300;-62
2024/01/03 03:25:32;;;;;;;14.93;2.97;;;9.60;99.90;;;;;;5043754;28;20072;-62
2024/01/03 03:27:57;;;;;;;12.40;2.53;;;9.60;99.90;;;;;;5044274;28;20512;-61
2024/01/03 03:30:23;;;;;;;9.95;1.90;;;9.60;99.90;;;;;;5024122;28;20139;-61
2024/01/03 03:32:49;;;;;;;7.05;1.70;;;9.60;99.90;;;;;;5056796;28;20102;-61
2024/01/03 03:35:15;;;;;;;11.07;2.45;;;9.60;99.90;;;;;;5045154;28;20041;-61
2024/01/03 03:37:41;;;;;;;15.15;2.55;;;9.70;99.90;;;;;;5059890;28;20557;-61
2024/01/03 03:40:10;;;;;;;13.25;2.97;;;9.70;99.90;;;;;;5041498;28;20304;-62
2024/01/03 03:42:36;;;;;;;14.10;2.45;;;9.70;99.90;;;;;;5027877;28;20033;-62
2024/01/03 03:45:02;;;;;;;18.80;3.00;;;9.60;99.90;;;;;;5043003;28;20509;-62
2024/01/03 03:47:28;;;;;;;14.85;3.28;;;9.60;99.90;;;;;;5038493;28;20042;-61
2024/01/03 03:49:53;;;;;;;23.88;4.60;;;9.60;99.90;;;;;;5043593;28;20444;-61
2024/01/03 03:52:19;;;;;;;10.13;2.58;;;9.60;99.90;;;;;;5028171;28;20040;-61
2024/01/03 03:54:45;;;;;;;12.48;2.75;;;9.60;99.90;;;;;;5055344;28;20095;-61
2024/01/03 03:57:10;;;;;;;11.45;2.50;;;9.60;99.90;;;;;;5023044;28;20077;-62
2024/01/03 03:59:36;;;;;;;10.10;1.83;;;9.60;99.90;;;;;;5041854;28;20045;-62
2024/01/03 04:02:02;;;;;;;11.18;2.63;;;9.60;99.90;;;;;;5045051;28;20041;-62
2024/01/03 04:04:28;;;;;;;12.32;2.00;;;9.60;99.90;;;;;;5060206;28;20056;-62
2024/01/03 04:06:54;;;;;;;15.88;3.15;;;9.70;99.90;;;;;;5043407;28;20064;-61
2024/01/03 04:09:20;;;;;;;9.32;2.30;;;9.70;99.90;;;;;;5025300;28;20260;-61
2024/01/03 04:11:46;;;;;;;12.80;2.15;;;9.70;99.90;;;;;;5059185;28;20075;-61
2024/01/03 04:14:12;;;;;;;17.33;3.50;;;9.70;99.90;;;;;;5059005;28;20183;-61
2024/01/03 04:16:38;;;;;;;10.27;2.42;;;9.70;99.90;;;;;;5027583;28;20056;-62
2024/01/03 04:19:04;;;;;;;16.25;3.25;;;9.70;99.90;;;;;;5037790;28;20497;-61
2024/01/03 04:21:32;;;;;;;13.50;2.50;;;9.60;99.90;;;;;;5057257;28;20048;-62
2024/01/03 04:23:58;;;;;;;11.05;2.30;;;9.60;99.90;;;;;;5025720;28;20037;-62
2024/01/03 04:26:26;;;;;;;9.20;2.30;;;9.60;99.90;;;;;;5046432;28;20090;-62
2024/01/03 04:28:52;;;;;;;6.85;1.67;;;9.60;99.90;;;;;;5046004;28;20044;-62
2024/01/03 04:31:18;;;;;;;12.38;2.35;;;9.50;99.90;;;;;;5044444;28;20389;-62
2024/01/03 04:33:43;;;;;;;7.68;2.30;;;9.50;99.90;;;;;;5045235;28;20045;-62
2024/01/03 04:36:12;;;;;;;10.57;2.65;;;9.50;99.90;;;;;;5046997;28;20138;-62
2024/01/03 04:38:38;;;;;;;16.27;2.78;;;9.50;99.90;;;;;;5030379;28;20418;-62
2024/01/03 04:41:03;;;;;;;13.27;2.80;;;9.50;99.90;;;;;;5029491;28;20293;-61
2024/01/03 04:43:29;;;;;;;20.10;3.70;;;9.50;99.90;;;;;;5047622;28;20040;-61
2024/01/03 04:45:55;;;;;;;18.83;3.17;;;9.60;99.90;;;;;;5046934;28;20048;-61
2024/01/03 04:48:21;;;;;;;14.15;2.92;;;9.60;99.90;;;;;;5063322;28;20040;-62
2024/01/03 04:50:46;;;;;;;18.42;3.08;;;9.60;99.90;;;;;;5030332;28;20397;-61
2024/01/03 04:53:12;;;;;;;12.60;3.45;;;9.60;99.90;;;;;;5024695;28;20047;-61
2024/01/03 04:55:38;;;;;;;14.43;2.33;;;9.70;99.90;;;;;;5045768;28;20045;-62
2024/01/03 04:58:04;;;;;;;20.40;3.40;;;9.70;99.90;;;;;;5047664;28;20045;-62
2024/01/03 05:00:30;;;;;;;16.33;2.70;;;9.70;99.90;;;;;;5040350;28;20037;-61
2024/01/03 05:02:56;;;;;;;13.80;2.65;;;9.70;99.90;;;;;;5033992;28;20119;-61
2024/01/03 05:05:22;;;;;;;17.77;3.30;;;9.70;99.90;;;;;;5044248;28;20175;-61
2024/01/03 05:07:47;;;;;;;12.80;3.78;;;9.70;99.90;;;;;;5029607;28;20482;-62
2024/01/03 05:10:13;;;;;;;15.20;3.08;;;9.70;99.90;;;;;;5062687;28;20044;-62
2024/01/03 05:12:39;;;;;;;14.88;2.90;;;9.70;99.90;;;;;;5027006;28;20456;-62
2024/01/03 05:15:05;;;;;;;12.93;2.65;;;9.70;99.90;;;;;;5024502;28;20041;-61
2024/01/03 05:17:31;;;;;;;13.38;2.53;;;9.60;99.90;;;;;;5045540;28;20379;-61
2024/01/03 05:19:57;;;;;;;15.60;2.65;;;9.60;99.90;;;;;;5044266;28;20044;-61
2024/01/03 05:22:23;;;;;;;13.90;2.80;;;9.50;99.90;;;;;;5043110;28;20519;-61
2024/01/03 05:24:49;;;;;;;12.52;2.13;;;9.50;99.90;;;;;;5057362;28;20055;-61
2024/01/03 05:27:14;;;;;;;11.30;2.55;;;9.40;99.90;;;;;;5044326;28;20083;-61
2024/01/03 05:29:41;;;;;;;9.15;1.80;;;9.40;99.90;;;;;;5044335;28;20056;-60
2024/01/03 05:32:06;;;;;;;12.13;2.15;;;9.30;99.90;;;;;;5046427;28;20516;-60
2024/01/03 05:34:32;;;;;;;12.32;2.38;;;9.30;99.90;;;;;;5029117;28;20037;-60
2024/01/03 05:36:58;;;;;;;21.73;3.50;;;9.30;99.90;;;;;;5027353;28;20129;-60
2024/01/03 05:39:23;;;;;;;22.30;3.88;;;9.30;99.90;;;;;;5029084;28;20044;-61
2024/01/03 05:41:49;;;;;;;28.63;5.40;;;9.30;99.90;;;;;;5044062;28;20079;-61
2024/01/03 05:44:15;;;;;;;30.85;5.28;;;9.40;99.90;;;;;;5042186;28;20080;-60
2024/01/03 05:46:42;;;;;;;30.67;5.32;;;9.40;99.90;;;;;;5043573;28;20045;-60
2024/01/03 05:49:08;;;;;;;32.03;5.25;;;9.50;99.90;;;;;;5045687;28;20520;-61
2024/01/03 05:51:33;;;;;;;29.95;4.95;;;9.50;99.90;;;;;;5029842;28;20045;-61
2024/01/03 05:54:00;;;;;;;31.55;6.10;;;9.60;99.90;;;;;;5044312;28;20048;-60
2024/01/03 05:56:27;;;;;;;44.05;6.72;;;9.60;99.90;;;;;;5046361;28;20049;-61
2024/01/03 05:58:52;;;;;;;33.28;6.30;;;9.60;99.90;;;;;;5028328;28;20041;-61
2024/01/03 06:01:18;;;;;;;32.05;6.75;;;9.60;99.90;;;;;;5022700;28;20346;-61
2024/01/03 06:03:44;;;;;;;27.05;5.60;;;9.70;99.90;;;;;;5044527;28;20086;-60
2024/01/03 06:06:10;;;;;;;30.10;5.35;;;9.70;99.90;;;;;;5046484;28;20036;-61
2024/01/03 06:08:36;;;;;;;33.58;5.13;;;9.70;99.90;;;;;;5046410;28;20044;-60
2024/01/03 06:11:01;;;;;;;33.85;5.82;;;9.70;99.90;;;;;;5041672;28;20574;-61
2024/01/03 06:13:28;;;;;;;35.03;5.40;;;9.70;99.90;;;;;;5044608;28;20044;-60
2024/01/03 06:15:54;;;;;;;33.15;5.47;;;9.70;99.90;;;;;;5041555;28;20276;-58
2024/01/03 06:18:21;;;;;;;27.83;5.47;;;9.70;99.90;;;;;;5028038;28;20056;-60
2024/01/03 06:20:47;;;;;;;24.15;4.50;;;9.70;99.90;;;;;;5025419;28;20048;-59
2024/01/03 06:23:12;;;;;;;26.92;4.55;;;9.70;99.90;;;;;;5046169;28;20422;-60
2024/01/03 06:25:38;;;;;;;29.33;4.80;;;9.80;99.90;;;;;;5024828;28;20402;-60
2024/01/03 06:28:05;;;;;;;29.67;4.57;;;9.80;99.90;;;;;;5043165;28;20060;-60
2024/01/03 06:30:30;;;;;;;14.43;3.92;;;9.80;99.90;;;;;;5039979;28;20049;-60
2024/01/03 06:32:56;;;;;;;28.50;4.90;;;9.80;99.90;;;;;;5025322;28;20051;-60
2024/01/03 06:35:22;;;;;;;28.48;4.72;;;9.80;99.90;;;;;;5043445;28;20498;-60
2024/01/03 06:37:47;;;;;;;27.45;5.47;;;9.80;99.90;;;;;;5044111;28;20426;-60
2024/01/03 06:40:14;;;;;;;30.27;5.78;;;9.80;99.90;;;;;;5028564;28;20029;-60
2024/01/03 06:42:40;;;;;;;26.45;5.25;;;9.80;99.90;;;;;;5043013;28;20074;-60
2024/01/03 06:45:06;;;;;;;21.08;5.20;;;9.80;99.90;;;;;;5022799;28;20045;-59
2024/01/03 06:47:32;;;;;;;24.02;4.68;;;9.80;99.90;;;;;;5044294;28;20385;-60
2024/01/03 06:49:58;;;;;;;29.17;5.50;;;9.80;99.90;;;;;;5044285;28;20127;-60
2024/01/03 06:52:24;;;;;;;31.08;5.15;;;9.80;99.90;;;;;;5025251;28;20740;-59
2024/01/03 06:54:50;;;;;;;29.30;5.55;;;9.80;99.90;;;;;;5040163;28;20045;-60
2024/01/03 06:57:16;;;;;;;29.92;5.68;;;9.80;99.90;;;;;;5023377;28;20481;-59
2024/01/03 06:59:42;;;;;;;27.90;5.35;;;9.80;99.90;;;;;;5047954;28;20227;-60
2024/01/03 07:02:08;;;;;;;31.92;5.63;;;9.70;99.90;;;;;;5038559;28;20033;-60
2024/01/03 07:04:34;;;;;;;28.23;4.78;;;9.70;99.90;;;;;;5035939;28;20605;-60
2024/01/03 07:07:00;;;;;;;30.35;5.72;;;9.70;99.90;;;;;;5058381;28;20109;-60
2024/01/03 07:09:26;;;;;;;27.00;3.97;;;9.70;99.90;;;;;;5025923;28;20135;-61
2024/01/03 07:11:52;;;;;;;26.77;6.10;;;9.70;99.90;;;;;;5023795;28;20036;-60
2024/01/03 07:14:18;;;;;;;24.70;4.93;;;9.80;99.90;;;;;;5047062;28;20041;-59
2024/01/03 07:16:44;;;;;;;23.27;4.82;;;9.80;99.90;;;;;;5038791;28;20055;-61
2024/01/03 07:19:11;;;;;;;24.40;4.55;;;9.70;99.90;;;;;;5023709;28;20128;-59
2024/01/03 07:21:36;;;;;;;26.05;5.55;;;9.80;99.90;;;;;;5033283;28;20127;-60
2024/01/03 07:24:02;;;;;;;31.33;5.13;;;9.70;99.90;;;;;;5053935;28;20063;-61
2024/01/03 07:26:28;;;;;;;26.75;4.43;;;9.70;99.90;;;;;;5026312;28;20469;-61
2024/01/03 07:28:54;;;;;;;20.13;3.58;;;9.70;99.90;;;;;;5029337;28;20040;-61
2024/01/03 07:31:19;;;;;;;25.33;3.67;;;9.70;99.90;;;;;;5023818;28;20315;-61
2024/01/03 07:33:45;;;;;;;27.02;4.28;;;9.70;99.90;;;;;;5025156;28;20073;-61
2024/01/03 07:36:11;;;;;;;23.05;5.03;;;9.70;99.90;;;;;;5027283;28;20033;-61
2024/01/03 07:38:36;;;;;;;28.02;4.53;;;9.70;99.90;;;;;;5057837;28;20207;-60
2024/01/03 07:41:02;;;;;;;31.05;5.00;;;9.60;99.90;;;;;;5056164;28;20032;-60
2024/01/03 07:43:31;;;;;;;26.02;5.28;;;9.60;99.90;;;;;;5021832;28;20041;-59
2024/01/03 07:45:58;;;;;;;20.35;4.07;;;9.60;99.90;;;;;;5027418;28;20053;-61
2024/01/03 07:48:23;;;;;;;33.17;5.13;;;9.60;99.90;;;;;;5043303;28;20047;-61
2024/01/03 07:50:50;;;;;;;28.52;5.32;;;9.70;99.90;;;;;;5036422;28;20037;-59
2024/01/03 07:53:16;;;;;;;26.88;4.53;;;9.70;99.90;;;;;;5051884;28;20045;-61
2024/01/03 07:55:41;;;;;;;22.83;4.97;;;9.70;99.90;;;;;;5043950;28;20603;-60
2024/01/03 07:58:08;;;;;;;30.23;4.65;;;9.70;99.90;;;;;;5039164;28;20405;-60
2024/01/03 08:00:34;;;;;;;35.20;6.57;;;9.70;99.90;;;;;;5042094;28;20071;-60
2024/01/03 08:03:00;;;;;;;26.00;5.30;;;9.70;99.90;;;;;;5044125;28;20409;-60
2024/01/03 08:05:25;;;;;;;42.20;6.30;;;9.70;99.90;;;;;;5044858;28;20045;-60
2024/01/03 08:07:51;;;;;;;25.95;4.90;;;9.70;99.90;;;;;;5046449;28;20502;-61
2024/01/03 08:10:17;;;;;;;19.17;3.78;;;9.70;99.90;;;;;;5025911;28;20047;-60
2024/01/03 08:12:42;;;;;;;32.38;6.05;;;9.70;99.90;;;;;;5028744;28;20037;-61
2024/01/03 08:15:09;;;;;;;22.23;4.10;;;9.70;99.90;;;;;;5044381;28;20040;-58
2024/01/03 08:17:34;;;;;;;24.25;5.30;;;9.70;99.90;;;;;;5024355;28;20095;-58
2024/01/03 08:20:00;;;;;;;28.30;3.97;;;9.60;99.90;;;;;;5044674;28;20436;-59
2024/01/03 08:22:26;;;;;;;16.95;3.72;;;9.60;99.90;;;;;;5025906;28;20182;-61
2024/01/03 08:24:52;;;;;;;24.65;3.80;;;9.60;99.90;;;;;;5037938;28;20049;-61
2024/01/03 08:27:18;;;;;;;24.30;4.10;;;9.60;99.90;;;;;;5037119;28;20040;-61
2024/01/03 08:29:44;;;;;;;23.77;5.50;;;9.60;99.90;;;;;;5025026;28;20176;-61
2024/01/03 08:32:13;;;;;;;23.08;4.43;;;9.60;99.90;;;;;;5046715;28;21925;-61
2024/01/03 08:34:39;;;;;;;28.42;4.80;;;9.60;99.90;;;;;;5042972;28;20124;-59
2024/01/03 08:37:04;;;;;;;26.40;4.85;;;9.50;99.90;;;;;;5044471;28;20151;-60
2024/01/03 08:39:30;;;;;;;23.27;4.03;;;9.60;99.90;;;;;;5057726;28;20044;-60
2024/01/03 08:41:56;;;;;;;25.67;5.47;;;9.60;99.90;;;;;;5028715;28;20032;-60
2024/01/03 08:44:22;;;;;;;24.15;4.22;;;9.60;99.90;;;;;;5041171;28;20076;-61
2024/01/03 08:46:47;;;;;;;27.38;5.00;;;9.60;99.90;;;;;;5044582;28;20041;-61
2024/01/03 08:49:13;;;;;;;24.90;5.03;;;9.60;99.90;;;;;;5042303;28;20088;-60
2024/01/03 08:51:39;;;;;;;29.00;4.72;;;9.60;99.90;;;;;;5039539;28;20075;-60
2024/01/03 08:54:05;;;;;;;25.45;4.53;;;9.60;99.90;;;;;;5044389;28;20090;-60
2024/01/03 08:56:31;;;;;;;30.08;5.28;;;9.60;99.90;;;;;;5049304;28;20045;-60
2024/01/03 08:58:57;;;;;;;23.83;4.28;;;9.70;99.90;;;;;;5046759;28;20090;-61
2024/01/03 09:01:24;;;;;;;18.13;3.65;;;9.70;99.90;;;;;;5057650;28;20032;-60
2024/01/03 09:03:50;;;;;;;18.50;3.17;;;9.70;99.90;;;;;;5042242;28;20059;-60
2024/01/03 09:06:21;;;;;;;25.60;3.80;;;9.70;99.90;;;;;;5044719;28;20045;-61
2024/01/03 09:08:50;;;;;;;16.58;3.65;;;9.70;99.90;;;;;;5053603;28;20042;-61
2024/01/03 09:11:19;;;;;;;16.45;4.25;;;9.70;99.90;;;;;;5055023;28;20037;-61
2024/01/03 09:13:48;;;;;;;14.70;3.08;;;9.70;99.90;;;;;;5049302;28;20413;-61
2024/01/03 09:16:18;;;;;;;21.45;4.13;;;9.80;99.90;;;;;;5060331;28;20048;-60
2024/01/03 09:18:44;;;;;;;21.23;3.95;;;9.80;99.90;;;;;;5044376;28;20094;-60
2024/01/03 09:21:10;;;;;;;20.27;3.42;;;9.80;99.90;;;;;;5022398;28;20033;-61
2024/01/03 09:23:36;;;;;;;20.23;3.47;;;9.80;99.90;;;;;;5042473;28;20102;-60
2024/01/03 09:26:06;;;;;;;16.08;3.45;;;9.80;99.90;;;;;;5057654;28;20049;-60
2024/01/03 09:28:32;;;;;;;19.90;2.97;;;9.70;99.90;;;;;;5043903;28;20044;-60
2024/01/03 09:30:57;;;;;;;14.27;2.92;;;9.80;99.90;;;;;;5044898;28;20052;-60
2024/01/03 09:33:23;;;;;;;13.25;2.90;;;9.80;99.90;;;;;;5029889;28;20470;-61
2024/01/03 09:35:49;;;;;;;11.57;2.53;;;9.70;99.90;;;;;;5045791;28;20482;-60
2024/01/03 09:38:15;;;;;;;11.43;2.20;;;9.70;99.90;;;;;;5027337;28;20045;-60
2024/01/03 09:40:41;;;;;;;12.10;1.90;;;9.70;99.90;;;;;;5057417;28;20535;-59
2024/01/03 09:43:08;;;;;;;22.30;3.28;;;9.70;99.90;;;;;;5045655;28;20287;-60
2024/01/03 09:45:34;;;;;;;15.50;2.50;;;9.70;99.90;;;;;;5044582;28;20393;-61
2024/01/03 09:48:00;;;;;;;21.27;3.63;;;9.80;99.90;;;;;;5047445;28;20040;-61
2024/01/03 09:50:26;;;;;;;18.30;3.20;;;9.80;99.90;;;;;;5041142;28;20041;-61
2024/01/03 09:52:56;;;;;;;18.13;3.20;;;9.80;99.90;;;;;;5041404;28;20045;-60
2024/01/03 09:55:22;;;;;;;22.83;3.20;;;9.80;99.90;;;;;;5040923;28;20037;-60
2024/01/03 09:57:49;;;;;;;20.20;3.55;;;9.90;99.90;;;;;;5024388;28;20401;-60
2024/01/03 10:00:16;;;;;;;19.58;4.07;;;9.90;99.90;;;;;;5042795;28;20033;-59
2024/01/03 10:02:47;;;;;;;26.98;4.40;;;9.90;99.90;;;;;;5037119;28;20079;-60
2024/01/03 10:05:22;;;;;;;18.60;3.15;;;9.90;99.90;;;;;;5043380;28;20797;-60
2024/01/03 10:07:48;;;;;;;14.50;2.92;;;9.90;99.90;;;;;;5041431;28;20136;-61
2024/01/03 10:10:34;;;;;;;13.98;2.50;;;9.80;99.90;;;;;;5027290;28;20132;-59
2024/01/03 10:13:13;;;;;;;13.80;2.63;;;9.70;99.90;;;;;;5037902;28;20071;-60
2024/01/03 10:15:39;;;;;;;17.13;3.25;;;9.60;99.90;;;;;;5026547;28;20410;-61
2024/01/03 10:18:09;;;;;;;16.23;2.72;;;9.50;99.90;;;;;;5036918;28;20041;-60
2024/01/03 10:20:35;;;;;;;20.02;3.05;;;9.50;99.90;;;;;;5028812;28;20072;-61
2024/01/03 10:23:05;;;;;;;20.60;4.47;;;9.60;99.90;;;;;;5038827;28;20041;-61
2024/01/03 10:25:31;;;;;;;18.00;3.17;;;9.80;99.90;;;;;;5041790;28;20076;-61
2024/01/03 10:28:01;;;;;;;22.42;3.75;;;10.00;99.90;;;;;;5041600;28;20045;-61
2024/01/03 10:30:28;;;;;;;19.92;3.88;;;10.10;99.90;;;;;;5021104;28;20079;-60
2024/01/03 10:32:58;;;;;;;20.40;3.88;;;10.10;99.90;;;;;;5037027;28;20044;-61
2024/01/03 10:35:29;;;;;;;23.52;3.97;;;10.10;99.90;;;;;;5021665;28;20402;-61
2024/01/03 10:37:56;;;;;;;28.38;4.13;;;10.10;99.90;;;;;;5025019;28;20118;-60
2024/01/03 10:40:28;;;;;;;23.85;3.65;;;10.10;99.90;;;;;;5040826;28;20076;-61
2024/01/03 10:42:55;;;;;;;19.42;3.67;;;10.10;99.90;;;;;;5039731;28;20536;-60
2024/01/03 10:45:21;;;;;;;30.48;4.53;;;10.10;99.90;;;;;;5009835;28;20048;-61
2024/01/03 10:47:48;;;;;;;21.08;4.05;;;10.10;99.90;;;;;;5022570;28;20072;-61
2024/01/03 10:50:16;;;;;;;22.50;3.65;;;10.10;99.90;;;;;;5026481;28;20052;-60
2024/01/03 10:52:43;;;;;;;23.45;4.60;;;10.20;99.90;;;;;;5022026;28;20037;-61
2024/01/03 10:55:20;;;;;;;22.05;3.47;;;10.20;99.90;;;;;;5051400;28;20127;-61
2024/01/03 10:58:03;;;;;;;24.00;4.38;;;10.20;99.90;;;;;;5043039;28;20056;-61
2024/01/03 11:00:58;;;;;;;22.42;4.43;;;10.20;99.90;;;;;;5055024;28;20048;-60
2024/01/03 11:04:13;;;;;;;19.42;4.50;;;10.30;99.90;;;;;;5042744;28;20056;-60
2024/01/03 11:06:48;;;;;;;23.48;3.42;;;10.30;99.90;;;;;;5012735;28;20037;-61
2024/01/03 11:09:14;;;;;;;37.85;6.13;;;10.30;99.90;;;;;;5038771;28;20624;-60
2024/01/03 11:11:39;;;;;;;23.25;4.03;;;10.40;99.90;;;;;;5039755;28;20033;-60
2024/01/03 11:14:18;;;;;;;22.35;4.32;;;10.40;99.90;;;;;;5023004;28;20486;-61
2024/01/03 11:16:44;;;;;;;26.70;4.85;;;10.40;99.90;;;;;;5040168;28;20052;-61
2024/01/03 11:19:13;;;;;;;21.02;4.10;;;10.40;99.90;;;;;;5040247;28;20702;-60
2024/01/03 11:21:43;;;;;;;23.58;3.90;;;10.50;99.90;;;;;;5024475;28;21420;-60
2024/01/03 11:24:09;;;;;;;23.67;5.18;;;10.50;99.90;;;;;;5040317;28;20126;-61
2024/01/03 11:26:53;;;;;;;24.60;4.45;;;10.50;99.90;;;;;;5057744;28;20409;-60
2024/01/03 11:29:31;;;;;;;;;;;10.50;99.90;;;;;;5026918;28;20033;-61
2024/01/03 11:31:58;;;;;;;31.00;5.97;;;10.60;99.90;;;;;;5035621;28;20449;-61
2024/01/03 11:34:44;;;;;;;20.10;5.63;;;10.60;99.90;;;;;;5033220;28;20288;-61
2024/01/03 11:37:18;;;;;;;23.05;4.90;;;10.70;99.90;;;;;;5045177;28;20506;-60
2024/01/03 11:39:50;;;;;;;19.27;4.97;;;10.70;99.90;;;;;;5032897;28;20120;-60
2024/01/03 11:42:20;;;;;;;20.65;3.67;;;10.70;99.90;;;;;;5046431;28;20321;-61
2024/01/03 11:44:46;;;;;;;20.15;3.65;;;10.50;99.90;;;;;;5043597;28;20052;-60
2024/01/03 11:47:13;;;;;;;17.65;3.50;;;10.50;99.90;;;;;;5047703;28;20495;-60
2024/01/03 11:49:40;;;;;;;23.17;3.95;;;10.50;99.90;;;;;;5045320;28;20041;-60
2024/01/03 11:52:06;;;;;;;22.95;3.78;;;10.50;99.90;;;;;;5045893;28;20033;-61
2024/01/03 11:54:34;;;;;;;21.60;4.15;;;10.60;99.90;;;;;;5041948;28;20056;-61
2024/01/03 11:57:09;;;;;;;13.40;3.45;;;10.60;99.90;;;;;;5030085;28;20203;-61
2024/01/03 11:59:35;;;;;;;16.75;3.58;;;10.70;99.90;;;;;;5044076;28;20041;-60
2024/01/03 12:02:01;;;;;;;16.92;3.38;;;10.70;99.90;;;;;;5027747;28;20110;-61
2024/01/03 12:04:28;;;;;;;23.75;3.97;;;10.70;99.90;;;;;;5029540;28;20045;-61
2024/01/03 12:06:57;;;;;;;24.05;4.47;;;10.70;99.90;;;;;;5047392;28;20040;-60
2024/01/03 12:09:24;;;;;;;25.48;3.88;;;10.70;99.90;;;;;;5042213;28;20056;-60
2024/01/03 12:11:50;;;;;;;28.48;4.75;;;10.60;99.90;;;;;;5057489;28;20063;-61
2024/01/03 12:14:19;;;;;;;21.58;4.88;;;10.60;99.90;;;;;;5045244;28;20041;-61
2024/01/03 12:16:49;;;;;;;18.23;3.58;;;10.60;99.90;;;;;;5025995;28;20179;-61
2024/01/03 12:19:25;;;;;;;19.55;3.85;;;10.60;99.90;;;;;;5041254;28;20049;-60
2024/01/03 12:21:59;;;;;;;20.85;3.47;;;10.60;99.90;;;;;;5063728;28;20512;-61
2024/01/03 12:24:45;;;;;;;23.20;3.53;;;10.60;99.90;;;;;;5044222;28;20040;-61
2024/01/03 12:27:18;;;;;;;18.83;3.40;;;10.60;99.90;;;;;;5043765;28;20041;-61
2024/01/03 12:29:44;;;;;;;21.83;4.35;;;10.60;99.90;;;;;;5043261;28;20052;-60
2024/01/03 12:32:18;;;;;;;20.35;3.70;;;10.60;99.90;;;;;;5024195;28;20548;-60
2024/01/03 12:34:46;;;;;;;18.00;3.00;;;10.60;99.90;;;;;;5039991;28;20626;-61
2024/01/03 12:37:12;;;;;;;21.08;4.53;;;10.60;99.90;;;;;;5043458;28;20048;-59
2024/01/03 12:39:39;;;;;;;20.30;3.50;;;10.60;99.90;;;;;;5040884;28;20328;-61
2024/01/03 12:42:12;;;;;;;19.23;3.63;;;10.60;99.90;;;;;;5044352;28;20080;-60
2024/01/03 12:44:40;;;;;;;18.88;4.22;;;10.60;99.90;;;;;;5044884;28;20040;-59